Time;durP1;ratioP1;P1;durP2;ratioP2;P2;SDS_P1;SDS_P2;PMS_P1;PMS_P2;Temp;Humidity;BMP_temperature;BMP_pressure;BME280_temperature;BME280_humidity;BME280_pressure;Samples;Min_cycle;Max_cycle;Signal;HPM_P1;HPM_P2
2023/08/01 00:00:59;;;;;;;1.40;0.87;;;17.90;99.90;;;;;;5083081;28;20532;-77
2023/08/01 00:03:26;;;;;;;5.40;1.40;;;18.00;99.90;;;;;;5081668;28;20470;-78
2023/08/01 00:05:54;;;;;;;1.83;1.47;;;18.00;99.90;;;;;;5081870;28;20487;-77
2023/08/01 00:08:22;;;;;;;2.70;1.53;;;17.90;99.90;;;;;;5084717;28;20497;-77
2023/08/01 00:10:51;;;;;;;2.00;1.00;;;17.90;99.90;;;;;;5084915;28;20447;-78
2023/08/01 00:13:18;;;;;;;1.37;1.07;;;17.90;99.90;;;;;;5082984;28;20961;-76
2023/08/01 00:15:45;;;;;;;2.00;1.23;;;17.90;99.90;;;;;;5084444;28;20520;-77
2023/08/01 00:18:11;;;;;;;2.30;1.23;;;17.60;99.90;;;;;;5082042;28;20801;-77
2023/08/01 00:20:39;;;;;;;2.00;0.97;;;17.50;99.90;;;;;;5085744;28;20529;-78
2023/08/01 00:23:06;;;;;;;3.13;1.17;;;17.50;99.90;;;;;;5088170;28;20576;-78
2023/08/01 00:25:33;;;;;;;3.13;1.90;;;17.50;99.90;;;;;;5083376;28;20836;-77
2023/08/01 00:28:01;;;;;;;4.23;1.30;;;17.50;99.90;;;;;;5087084;28;20498;-78
2023/08/01 00:30:28;;;;;;;1.93;1.20;;;17.50;99.90;;;;;;5088832;28;20443;-77
2023/08/01 00:32:55;;;;;;;2.13;1.00;;;17.60;99.90;;;;;;5087504;28;20897;-78
2023/08/01 00:35:22;;;;;;;1.10;1.00;;;17.70;99.90;;;;;;5088515;28;20501;-77
2023/08/01 00:37:49;;;;;;;2.60;1.10;;;17.80;99.90;;;;;;5086876;28;20620;-76
2023/08/01 00:40:17;;;;;;;1.00;0.90;;;17.80;99.90;;;;;;5086256;28;20536;-77
2023/08/01 00:42:44;;;;;;;5.50;1.07;;;17.80;99.90;;;;;;5088775;28;20451;-78
2023/08/01 00:45:13;;;;;;;1.57;1.00;;;17.90;99.90;;;;;;5083322;28;20522;-77
2023/08/01 00:47:40;;;;;;;1.40;1.00;;;17.90;99.90;;;;;;5085503;28;21004;-77
2023/08/01 00:50:09;;;;;;;0.90;0.70;;;17.90;99.90;;;;;;5089211;28;20440;-76
2023/08/01 00:52:36;;;;;;;2.30;1.50;;;17.90;99.90;;;;;;5088161;28;20456;-77
2023/08/01 00:55:03;;;;;;;1.93;1.00;;;18.00;99.90;;;;;;5085861;28;21003;-76
2023/08/01 00:57:31;;;;;;;1.00;0.90;;;18.00;99.90;;;;;;5086357;28;20458;-78
2023/08/01 00:59:58;;;;;;;2.03;1.00;;;18.00;99.90;;;;;;5086636;28;20440;-77
2023/08/01 01:02:26;;;;;;;2.07;1.40;;;18.00;99.90;;;;;;5081218;28;20467;-78
2023/08/01 01:04:53;;;;;;;2.33;1.37;;;18.10;99.90;;;;;;5087130;28;20553;-77
2023/08/01 01:07:21;;;;;;;2.13;1.07;;;18.10;99.90;;;;;;5082949;28;20462;-79
2023/08/01 01:09:48;;;;;;;1.40;1.00;;;18.00;99.90;;;;;;5083120;28;20499;-77
2023/08/01 01:12:15;;;;;;;4.23;0.80;;;18.00;99.90;;;;;;5086553;28;20548;-77
2023/08/01 01:14:42;;;;;;;0.70;0.70;;;18.00;99.90;;;;;;5087518;28;20479;-78
2023/08/01 01:17:09;;;;;;;1.00;0.90;;;18.00;99.90;;;;;;5085750;28;20467;-77
2023/08/01 01:19:37;;;;;;;1.13;0.77;;;17.90;99.90;;;;;;5088502;28;20520;-77
2023/08/01 01:22:08;;;;;;;1.27;0.90;;;17.90;99.90;;;;;;5082694;28;20463;-78
2023/08/01 01:24:36;;;;;;;1.20;1.10;;;17.90;99.90;;;;;;5087061;28;20477;-77
2023/08/01 01:27:05;;;;;;;2.27;1.43;;;17.80;99.90;;;;;;5086094;28;20497;-77
2023/08/01 01:29:34;;;;;;;1.57;1.47;;;17.70;99.90;;;;;;5084612;28;20552;-76
2023/08/01 01:32:02;;;;;;;1.73;1.40;;;17.70;99.90;;;;;;5082154;28;20991;-77
2023/08/01 01:34:29;;;;;;;1.63;1.50;;;17.70;99.90;;;;;;5083641;28;20532;-77
2023/08/01 01:36:56;;;;;;;2.50;0.70;;;17.70;99.90;;;;;;5085295;28;20571;-76
2023/08/01 01:39:24;;;;;;;1.10;0.80;;;17.70;99.90;;;;;;5087056;28;20806;-77
2023/08/01 01:41:51;;;;;;;1.37;1.23;;;17.80;99.90;;;;;;5079057;28;20487;-79
2023/08/01 01:44:18;;;;;;;1.93;1.83;;;17.60;99.90;;;;;;5084787;28;20965;-75
2023/08/01 01:46:44;;;;;;;2.30;1.37;;;17.70;99.90;;;;;;5082900;28;20571;-77
2023/08/01 01:49:11;;;;;;;1.63;1.50;;;17.60;99.90;;;;;;5087562;28;21328;-77
2023/08/01 01:51:38;;;;;;;1.17;1.07;;;17.60;99.90;;;;;;5086511;28;20441;-77
2023/08/01 01:54:05;;;;;;;1.90;1.10;;;17.60;99.90;;;;;;5084732;28;20455;-75
2023/08/01 01:56:35;;;;;;;1.60;1.03;;;17.70;99.90;;;;;;5087812;28;20510;-77
2023/08/01 01:59:02;;;;;;;2.40;1.33;;;17.80;99.90;;;;;;5086018;28;20451;-76
2023/08/01 02:01:29;;;;;;;4.00;1.50;;;17.80;99.90;;;;;;5087241;28;20497;-77
2023/08/01 02:03:56;;;;;;;1.20;1.10;;;17.90;99.90;;;;;;5082626;28;20549;-76
2023/08/01 02:06:23;;;;;;;1.40;1.30;;;17.80;99.90;;;;;;5082422;28;20518;-77
2023/08/01 02:08:50;;;;;;;1.40;1.20;;;17.80;99.90;;;;;;5085542;28;20450;-77
2023/08/01 02:11:17;;;;;;;1.50;1.20;;;17.80;99.90;;;;;;5086668;28;20450;-76
2023/08/01 02:13:45;;;;;;;9.03;2.13;;;17.70;99.90;;;;;;5082500;28;20990;-77
2023/08/01 02:16:12;;;;;;;2.00;1.23;;;17.70;99.90;;;;;;5079010;28;20684;-77
2023/08/01 02:18:39;;;;;;;3.03;2.43;;;17.70;99.90;;;;;;5085741;28;20432;-76
2023/08/01 02:21:06;;;;;;;1.27;1.10;;;17.80;99.90;;;;;;5086219;28;20512;-77
2023/08/01 02:23:36;;;;;;;1.33;1.23;;;17.80;99.90;;;;;;5085068;28;20466;-78
2023/08/01 02:26:03;;;;;;;1.30;1.20;;;17.80;99.90;;;;;;5084782;28;20574;-77
2023/08/01 02:28:30;;;;;;;1.73;1.30;;;17.70;99.90;;;;;;5087095;28;20554;-77
2023/08/01 02:30:58;;;;;;;1.83;1.27;;;17.60;99.90;;;;;;5083416;28;20520;-76
2023/08/01 02:33:25;;;;;;;4.30;1.03;;;17.50;99.90;;;;;;5084120;28;20497;-76
2023/08/01 02:35:52;;;;;;;2.00;1.00;;;17.40;99.90;;;;;;5085754;28;20805;-75
2023/08/01 02:38:19;;;;;;;2.30;0.90;;;17.40;99.90;;;;;;5084958;28;20459;-77
2023/08/01 02:40:46;;;;;;;7.50;1.20;;;17.40;99.90;;;;;;5086582;28;20535;-77
2023/08/01 02:43:13;;;;;;;1.87;1.00;;;17.40;99.90;;;;;;5083221;28;20832;-77
2023/08/01 02:45:40;;;;;;;0.87;0.83;;;17.40;99.90;;;;;;5086822;28;20479;-76
2023/08/01 02:48:08;;;;;;;1.40;1.13;;;17.40;99.90;;;;;;5082414;28;20472;-75
2023/08/01 02:50:35;;;;;;;2.10;1.43;;;17.50;99.90;;;;;;5085649;28;20513;-76
2023/08/01 02:53:02;;;;;;;1.20;1.00;;;17.60;99.90;;;;;;5083375;28;20464;-76
2023/08/01 02:55:29;;;;;;;1.20;0.77;;;17.80;99.90;;;;;;5085918;28;20447;-75
2023/08/01 02:57:56;;;;;;;1.20;0.80;;;17.80;99.90;;;;;;5086265;28;20504;-76
2023/08/01 03:00:23;;;;;;;2.57;1.83;;;17.80;99.90;;;;;;5081978;28;21062;-76
2023/08/01 03:02:50;;;;;;;3.53;1.57;;;17.70;99.90;;;;;;5084699;28;20544;-75
2023/08/01 03:05:18;;;;;;;2.20;1.43;;;17.80;99.90;;;;;;5085778;28;20532;-76
2023/08/01 03:07:45;;;;;;;1.33;0.90;;;17.80;99.90;;;;;;5085233;28;20468;-75
2023/08/01 03:10:12;;;;;;;2.60;1.50;;;17.80;99.90;;;;;;5083541;28;20499;-77
2023/08/01 03:12:39;;;;;;;1.00;0.90;;;17.70;99.90;;;;;;5081631;28;20458;-75
2023/08/01 03:15:08;;;;;;;1.20;1.10;;;17.70;99.90;;;;;;5085047;28;20504;-75
2023/08/01 03:17:35;;;;;;;1.40;1.13;;;17.70;99.90;;;;;;5084056;28;20465;-76
2023/08/01 03:20:02;;;;;;;1.20;1.10;;;17.70;99.90;;;;;;5086008;28;20443;-76
2023/08/01 03:22:31;;;;;;;2.93;1.10;;;17.70;99.90;;;;;;5085739;28;20439;-76
2023/08/01 03:25:00;;;;;;;1.73;1.53;;;17.70;99.90;;;;;;5081499;28;20515;-76
2023/08/01 03:27:26;;;;;;;1.90;1.17;;;17.70;99.90;;;;;;5084876;28;20495;-75
2023/08/01 03:29:53;;;;;;;3.47;1.50;;;17.70;99.90;;;;;;5084117;28;20487;-75
2023/08/01 03:32:21;;;;;;;2.70;1.10;;;17.60;99.90;;;;;;5085322;28;20459;-76
2023/08/01 03:34:48;;;;;;;1.43;1.23;;;17.60;99.90;;;;;;5082542;28;20448;-76
2023/08/01 03:37:17;;;;;;;1.17;1.07;;;17.60;99.90;;;;;;5084488;28;20535;-76
2023/08/01 03:39:46;;;;;;;2.03;1.03;;;17.60;99.90;;;;;;5079742;28;20964;-77
2023/08/01 03:42:13;;;;;;;1.50;1.40;;;17.60;99.90;;;;;;5083593;28;20870;-76
2023/08/01 03:44:40;;;;;;;1.60;1.17;;;17.50;99.90;;;;;;5079659;28;20553;-76
2023/08/01 03:47:07;;;;;;;1.30;1.00;;;17.50;99.90;;;;;;5081618;28;20493;-77
2023/08/01 03:49:35;;;;;;;1.37;1.27;;;17.60;99.90;;;;;;5085636;28;20523;-76
2023/08/01 03:52:02;;;;;;;3.80;1.27;;;17.50;99.90;;;;;;5085076;28;20449;-76
2023/08/01 03:54:29;;;;;;;1.57;1.30;;;17.40;99.90;;;;;;5084511;28;20471;-77
2023/08/01 03:56:57;;;;;;;2.40;0.90;;;17.40;99.90;;;;;;5087037;28;21137;-75
2023/08/01 03:59:26;;;;;;;4.27;1.23;;;17.40;99.90;;;;;;5088854;28;20925;-76
2023/08/01 04:01:53;;;;;;;3.73;1.93;;;17.40;99.90;;;;;;5083726;28;20568;-76
2023/08/01 04:04:20;;;;;;;1.30;1.20;;;17.50;99.90;;;;;;5077761;28;20551;-75
2023/08/01 04:06:47;;;;;;;3.00;1.20;;;17.40;99.90;;;;;;5086852;28;20558;-76
2023/08/01 04:09:13;;;;;;;2.80;1.00;;;17.50;99.90;;;;;;5084572;28;20502;-77
2023/08/01 04:11:40;;;;;;;1.30;0.70;;;17.40;99.90;;;;;;5082232;28;20459;-76
2023/08/01 04:14:11;;;;;;;1.60;1.10;;;17.40;99.90;;;;;;5082373;28;20494;-77
2023/08/01 04:16:38;;;;;;;1.10;0.97;;;17.40;99.90;;;;;;5085936;28;20512;-77
2023/08/01 04:19:05;;;;;;;1.77;1.10;;;17.50;99.90;;;;;;5087898;28;20446;-76
2023/08/01 04:21:32;;;;;;;3.07;1.50;;;17.50;99.90;;;;;;5083787;28;20528;-76
2023/08/01 04:23:59;;;;;;;2.57;1.10;;;17.60;99.90;;;;;;5087127;28;21033;-75
2023/08/01 04:26:26;;;;;;;2.57;1.33;;;17.60;99.90;;;;;;5083391;28;20521;-77
2023/08/01 04:28:53;;;;;;;1.50;1.40;;;17.50;99.90;;;;;;5087910;28;20506;-77
2023/08/01 04:31:21;;;;;;;1.70;1.53;;;17.50;99.90;;;;;;5087955;28;21012;-77
2023/08/01 04:33:48;;;;;;;1.30;1.20;;;17.60;99.90;;;;;;5088488;28;20435;-76
2023/08/01 04:36:15;;;;;;;1.80;1.70;;;17.60;99.90;;;;;;5085231;28;20502;-77
2023/08/01 04:38:42;;;;;;;1.40;1.30;;;17.70;99.90;;;;;;5087498;28;20496;-77
2023/08/01 04:41:09;;;;;;;2.30;1.10;;;17.70;99.90;;;;;;5086079;28;20905;-76
2023/08/01 04:43:35;;;;;;;2.73;2.53;;;17.60;99.90;;;;;;5087930;28;20517;-76
2023/08/01 04:46:02;;;;;;;1.37;1.27;;;17.50;99.90;;;;;;5084104;28;20904;-77
2023/08/01 04:48:31;;;;;;;4.00;1.80;;;17.50;99.90;;;;;;5086919;28;20643;-76
2023/08/01 04:50:58;;;;;;;2.77;1.50;;;17.40;99.90;;;;;;5084367;28;20458;-76
2023/08/01 04:53:25;;;;;;;1.07;0.97;;;17.50;99.90;;;;;;5085836;28;20453;-76
2023/08/01 04:55:53;;;;;;;1.33;1.23;;;17.40;99.90;;;;;;5084981;28;20450;-76
2023/08/01 04:58:20;;;;;;;1.60;1.50;;;17.30;99.90;;;;;;5079605;28;21292;-75
2023/08/01 05:00:47;;;;;;;1.17;1.07;;;17.30;99.90;;;;;;5084661;28;20449;-76
2023/08/01 05:03:14;;;;;;;1.83;1.10;;;17.40;99.90;;;;;;5083339;28;20951;-75
2023/08/01 05:05:42;;;;;;;1.53;1.00;;;17.40;99.90;;;;;;5072465;28;20553;-75
2023/08/01 05:08:09;;;;;;;1.40;1.10;;;17.40;99.90;;;;;;5083760;28;21000;-79
2023/08/01 05:10:36;;;;;;;1.53;1.13;;;17.40;99.90;;;;;;5083513;28;20504;-76
2023/08/01 05:13:03;;;;;;;2.00;1.00;;;17.40;99.90;;;;;;5080659;28;20558;-78
2023/08/01 05:15:30;;;;;;;1.50;1.20;;;17.40;99.90;;;;;;5083197;28;20464;-78
2023/08/01 05:17:57;;;;;;;1.27;0.83;;;17.50;99.90;;;;;;5079737;28;20467;-77
2023/08/01 05:20:30;;;;;;;1.87;1.47;;;17.50;99.90;;;;;;5081110;28;20466;-77
2023/08/01 05:22:58;;;;;;;3.50;1.50;;;17.50;99.90;;;;;;5084528;28;20536;-78
2023/08/01 05:25:26;;;;;;;1.97;1.40;;;17.50;99.90;;;;;;5082133;28;20474;-75
2023/08/01 05:27:53;;;;;;;3.23;1.27;;;17.60;99.90;;;;;;5086603;28;20501;-79
2023/08/01 05:30:19;;;;;;;1.07;1.00;;;17.50;99.90;;;;;;5081612;28;20462;-76
2023/08/01 05:32:46;;;;;;;1.73;1.50;;;17.60;99.90;;;;;;5078724;28;20499;-76
2023/08/01 05:35:14;;;;;;;1.43;1.20;;;17.70;99.90;;;;;;5079153;28;20523;-76
2023/08/01 05:37:41;;;;;;;1.20;1.10;;;17.70;99.90;;;;;;5078995;28;20462;-78
2023/08/01 05:40:10;;;;;;;1.43;1.10;;;17.70;99.90;;;;;;5076121;28;20478;-77
2023/08/01 05:42:37;;;;;;;1.10;1.00;;;17.70;99.90;;;;;;5081430;28;20481;-78
2023/08/01 05:45:05;;;;;;;1.10;1.07;;;17.70;99.90;;;;;;5082711;28;20513;-78
2023/08/01 05:47:32;;;;;;;1.53;1.43;;;17.80;99.90;;;;;;5079390;28;20523;-76
2023/08/01 05:49:59;;;;;;;1.00;0.80;;;17.80;99.90;;;;;;5075594;28;20466;-78
2023/08/01 05:52:26;;;;;;;2.80;1.53;;;17.80;99.90;;;;;;5081810;28;20986;-75
2023/08/01 05:54:52;;;;;;;1.23;1.13;;;17.80;99.90;;;;;;5083064;28;20464;-76
2023/08/01 05:57:20;;;;;;;3.10;1.23;;;17.80;99.90;;;;;;5085142;28;20449;-76
2023/08/01 05:59:47;;;;;;;2.20;1.03;;;17.80;99.90;;;;;;5086236;28;20559;-78
2023/08/01 06:02:14;;;;;;;2.10;0.90;;;17.80;99.90;;;;;;5081951;28;20497;-77
2023/08/01 06:04:41;;;;;;;2.00;0.77;;;17.80;99.90;;;;;;5077331;28;20522;-78
2023/08/01 06:07:08;;;;;;;1.47;1.10;;;17.80;99.90;;;;;;5080027;28;20613;-78
2023/08/01 06:09:35;;;;;;;1.13;0.80;;;17.90;99.90;;;;;;5082093;28;20480;-75
2023/08/01 06:12:02;;;;;;;1.03;0.83;;;17.90;99.90;;;;;;5077809;28;20879;-77
2023/08/01 06:14:31;;;;;;;1.70;1.23;;;18.00;99.90;;;;;;5077838;28;20457;-75
2023/08/01 06:16:58;;;;;;;1.63;0.90;;;18.10;99.90;;;;;;5073568;28;20497;-76
2023/08/01 06:19:24;;;;;;;1.77;1.17;;;18.10;99.90;;;;;;5080966;28;20474;-78
2023/08/01 06:21:51;;;;;;;2.57;1.00;;;18.10;99.90;;;;;;5086150;28;20956;-79
2023/08/01 06:24:18;;;;;;;1.13;0.90;;;18.10;99.90;;;;;;5080901;28;20479;-77
2023/08/01 06:26:45;;;;;;;1.47;1.00;;;18.00;99.90;;;;;;5084447;28;21276;-76
2023/08/01 06:29:12;;;;;;;3.33;1.07;;;17.80;99.90;;;;;;5081342;28;20509;-75
2023/08/01 06:31:40;;;;;;;1.60;1.37;;;17.80;99.90;;;;;;5080146;28;20906;-75
2023/08/01 06:34:07;;;;;;;1.57;1.40;;;17.70;99.90;;;;;;5080805;28;20443;-79
2023/08/01 06:36:35;;;;;;;1.77;0.90;;;17.70;99.90;;;;;;5070970;28;20488;-77
2023/08/01 06:39:01;;;;;;;1.37;0.80;;;17.60;99.90;;;;;;5083083;28;20885;-77
2023/08/01 06:41:28;;;;;;;1.60;0.83;;;17.50;99.90;;;;;;5080068;28;20473;-77
2023/08/01 06:43:55;;;;;;;2.40;1.00;;;17.40;99.90;;;;;;5078690;28;20463;-78
2023/08/01 06:46:22;;;;;;;1.43;1.00;;;17.50;99.90;;;;;;5078707;28;20520;-76
2023/08/01 06:48:51;;;;;;;2.23;1.03;;;17.50;99.90;;;;;;5071948;28;21517;-79
2023/08/01 06:51:17;;;;;;;4.87;1.13;;;17.50;99.90;;;;;;5084057;28;20501;-77
2023/08/01 06:53:44;;;;;;;4.30;1.53;;;17.40;99.90;;;;;;5076093;28;20527;-80
2023/08/01 06:56:11;;;;;;;2.30;1.50;;;17.40;99.90;;;;;;5080674;28;20493;-78
2023/08/01 06:58:38;;;;;;;1.70;1.03;;;17.50;99.90;;;;;;5078284;28;20531;-80
2023/08/01 07:01:05;;;;;;;1.30;1.17;;;17.60;99.90;;;;;;5079553;28;20450;-79
2023/08/01 07:03:32;;;;;;;2.27;1.30;;;17.70;99.90;;;;;;5081149;28;20453;-79
2023/08/01 07:06:01;;;;;;;2.83;1.20;;;17.60;99.90;;;;;;5078469;28;21157;-80
2023/08/01 07:08:27;;;;;;;1.90;0.93;;;17.60;99.90;;;;;;5081383;28;20530;-80
2023/08/01 07:10:54;;;;;;;2.27;1.23;;;17.60;99.90;;;;;;5077698;28;20469;-79
2023/08/01 07:13:22;;;;;;;2.67;1.00;;;17.60;99.90;;;;;;5079638;28;20556;-79
2023/08/01 07:15:49;;;;;;;1.17;1.00;;;17.60;99.90;;;;;;5079040;28;20870;-79
2023/08/01 07:18:16;;;;;;;1.63;1.53;;;17.50;99.90;;;;;;5074168;28;20547;-79
2023/08/01 07:20:43;;;;;;;3.90;1.33;;;17.50;99.90;;;;;;5073415;28;21173;-79
2023/08/01 07:23:11;;;;;;;1.47;1.37;;;17.40;99.90;;;;;;5078439;28;20549;-79
2023/08/01 07:25:38;;;;;;;2.50;1.17;;;17.40;99.90;;;;;;5082242;28;20450;-78
2023/08/01 07:28:05;;;;;;;2.03;1.33;;;17.40;99.90;;;;;;5077282;28;20669;-79
2023/08/01 07:30:32;;;;;;;1.40;1.10;;;17.40;99.90;;;;;;5081835;28;20491;-80
2023/08/01 07:32:59;;;;;;;1.80;1.30;;;17.40;99.90;;;;;;5084346;28;20516;-79
2023/08/01 07:35:26;;;;;;;2.10;1.10;;;17.40;99.90;;;;;;5080601;28;20475;-78
2023/08/01 07:37:53;;;;;;;2.80;1.37;;;17.40;99.90;;;;;;5085824;28;20538;-82
2023/08/01 07:40:21;;;;;;;1.20;1.10;;;17.40;99.90;;;;;;5088377;28;20524;-81
2023/08/01 07:42:48;;;;;;;1.33;1.20;;;17.50;99.90;;;;;;5082054;28;21161;-81
2023/08/01 07:45:15;;;;;;;1.70;1.03;;;17.70;99.90;;;;;;5084275;28;20439;-81
2023/08/01 07:47:42;;;;;;;2.60;1.50;;;17.70;99.90;;;;;;5084765;28;20597;-81
2023/08/01 07:50:09;;;;;;;1.83;1.10;;;17.60;99.90;;;;;;5080449;28;20494;-83
2023/08/01 07:52:36;;;;;;;1.90;1.20;;;17.60;99.90;;;;;;5083826;28;20508;-82
2023/08/01 07:55:04;;;;;;;2.17;1.10;;;17.70;99.90;;;;;;5083326;28;20525;-83
2023/08/01 07:57:32;;;;;;;1.13;0.90;;;17.80;99.90;;;;;;5081974;28;21033;-82
2023/08/01 07:59:59;;;;;;;1.53;1.43;;;17.80;99.90;;;;;;5084658;28;20477;-82
2023/08/01 08:02:26;;;;;;;1.17;0.90;;;17.90;99.90;;;;;;5081743;28;20470;-82
2023/08/01 08:04:53;;;;;;;1.73;1.30;;;17.80;99.90;;;;;;5086367;28;20450;-82
2023/08/01 08:07:20;;;;;;;1.97;1.50;;;17.80;99.90;;;;;;5084524;28;20509;-90
2023/08/01 08:09:47;;;;;;;3.93;1.00;;;17.80;99.90;;;;;;5085106;28;20459;-81
2023/08/01 08:12:14;;;;;;;1.23;1.13;;;17.80;99.90;;;;;;5084765;28;21020;-81
2023/08/01 08:14:42;;;;;;;4.07;1.50;;;17.70;99.90;;;;;;5084499;28;20531;-83
2023/08/01 08:17:09;;;;;;;1.20;0.97;;;17.50;99.90;;;;;;5082121;28;20495;-81
2023/08/01 08:19:36;;;;;;;2.93;2.07;;;17.60;99.90;;;;;;5088112;28;20939;-81
2023/08/01 08:22:03;;;;;;;2.07;1.07;;;17.60;99.90;;;;;;5088229;28;20501;-83
2023/08/01 08:24:30;;;;;;;2.27;1.40;;;17.80;99.90;;;;;;5083268;28;20437;-82
2023/08/01 08:26:57;;;;;;;1.47;1.00;;;18.00;99.90;;;;;;5080306;28;20482;-83
2023/08/01 08:29:24;;;;;;;2.30;1.87;;;18.10;99.90;;;;;;5086110;28;20514;-82
2023/08/01 08:31:52;;;;;;;3.30;1.53;;;18.20;99.90;;;;;;5083262;28;20544;-83
2023/08/01 08:34:19;;;;;;;2.33;0.90;;;18.10;99.90;;;;;;5082761;28;20455;-82
2023/08/01 08:36:47;;;;;;;1.33;1.10;;;18.20;99.90;;;;;;5079740;28;20472;-82
2023/08/01 08:39:14;;;;;;;1.90;1.20;;;18.30;99.90;;;;;;5082638;28;21062;-82
2023/08/01 08:41:47;;;;;;;3.47;1.20;;;18.30;99.90;;;;;;5084297;28;20679;-83
2023/08/01 08:44:16;;;;;;;1.30;1.10;;;18.20;99.90;;;;;;5076862;28;20470;-81
2023/08/01 08:46:44;;;;;;;2.87;1.37;;;18.10;99.90;;;;;;5082895;28;21150;-82
2023/08/01 08:49:15;;;;;;;2.17;1.03;;;18.10;99.90;;;;;;5082400;28;20507;-81
2023/08/01 08:51:44;;;;;;;2.27;1.50;;;18.10;99.90;;;;;;5079940;28;20451;-82
2023/08/01 08:54:12;;;;;;;2.03;1.73;;;18.00;99.90;;;;;;5087927;28;20502;-82
2023/08/01 08:56:40;;;;;;;1.63;1.53;;;17.90;99.90;;;;;;5077144;28;21162;-82
2023/08/01 08:59:09;;;;;;;1.87;1.30;;;18.00;99.90;;;;;;5079163;28;20855;-81
2023/08/01 09:01:37;;;;;;;1.83;1.60;;;18.20;99.90;;;;;;5087311;28;20500;-82
2023/08/01 09:04:04;;;;;;;2.50;1.90;;;18.20;99.90;;;;;;5081383;28;20946;-82
2023/08/01 09:06:35;;;;;;;1.93;1.43;;;18.00;99.90;;;;;;5078306;28;20544;-82
2023/08/01 09:09:09;;;;;;;3.20;2.90;;;18.00;99.90;;;;;;5082093;28;20546;-81
2023/08/01 09:11:43;;;;;;;1.40;1.30;;;17.90;99.90;;;;;;5081447;28;20559;-81
2023/08/01 09:14:10;;;;;;;2.07;1.63;;;17.90;99.90;;;;;;5074782;28;20460;-82
2023/08/01 09:16:38;;;;;;;2.50;1.73;;;17.90;99.90;;;;;;5081530;28;20532;-82
2023/08/01 09:19:07;;;;;;;3.20;1.90;;;18.00;99.90;;;;;;5087301;28;20448;-82
2023/08/01 09:21:37;;;;;;;1.00;0.80;;;18.10;99.90;;;;;;5084575;28;20459;-81
2023/08/01 09:24:11;;;;;;;3.73;2.87;;;18.10;99.90;;;;;;5083772;28;20505;-83
2023/08/01 09:26:38;;;;;;;3.63;2.90;;;18.20;99.90;;;;;;5084343;28;20448;-81
2023/08/01 09:29:05;;;;;;;4.00;3.33;;;18.40;99.90;;;;;;5087178;28;20530;-81
2023/08/01 09:31:35;;;;;;;3.03;1.87;;;18.50;99.90;;;;;;5085586;28;20822;-82
2023/08/01 09:34:03;;;;;;;2.67;1.67;;;18.60;99.90;;;;;;5082814;28;21099;-82
2023/08/01 09:36:31;;;;;;;3.60;1.87;;;18.50;99.90;;;;;;5083593;28;20490;-83
2023/08/01 09:39:04;;;;;;;6.93;3.53;;;18.50;99.90;;;;;;5087817;28;20483;-82
2023/08/01 09:41:31;;;;;;;1.40;1.30;;;18.50;99.90;;;;;;5084422;28;20477;-82
2023/08/01 09:43:59;;;;;;;2.03;1.60;;;18.50;99.90;;;;;;5087674;28;20479;-81
2023/08/01 09:46:26;;;;;;;4.17;2.13;;;18.30;99.90;;;;;;5078811;28;20547;-82
2023/08/01 09:48:53;;;;;;;6.83;1.80;;;18.50;99.90;;;;;;5085246;28;21031;-82
2023/08/01 09:51:20;;;;;;;5.27;2.40;;;18.40;99.90;;;;;;5086867;28;20447;-82
2023/08/01 09:53:49;;;;;;;7.17;5.80;;;18.30;99.90;;;;;;5084104;28;20459;-81
2023/08/01 09:56:20;;;;;;;11.03;9.93;;;18.30;99.90;;;;;;5087129;28;20478;-83
2023/08/01 09:58:48;;;;;;;11.73;8.60;;;18.40;99.90;;;;;;5081988;28;20472;-82
2023/08/01 10:01:15;;;;;;;3.70;3.40;;;18.30;99.90;;;;;;5084475;28;20451;-82
2023/08/01 10:03:47;;;;;;;20.50;14.63;;;18.20;99.90;;;;;;5079659;28;20560;-82
2023/08/01 10:06:20;;;;;;;12.57;8.53;;;18.20;99.90;;;;;;5078554;28;20482;-81
2023/08/01 10:08:48;;;;;;;14.60;9.23;;;18.30;99.90;;;;;;5079955;28;20569;-81
2023/08/01 10:11:18;;;;;;;5.87;4.07;;;18.30;99.90;;;;;;5083917;28;20835;-82
2023/08/01 10:13:45;;;;;;;25.40;16.93;;;18.30;99.90;;;;;;5082472;28;20490;-82
2023/08/01 10:16:13;;;;;;;62.80;40.00;;;18.10;99.90;;;;;;5077004;28;20494;-81
2023/08/01 10:18:41;;;;;;;57.50;39.93;;;18.10;99.90;;;;;;5086000;28;20476;-82
2023/08/01 10:21:10;;;;;;;6.83;5.93;;;18.00;99.90;;;;;;5084620;28;20499;-82
2023/08/01 10:23:39;;;;;;;19.90;15.03;;;17.90;99.90;;;;;;5083704;28;20854;-83
2023/08/01 10:26:09;;;;;;;16.13;11.63;;;17.90;99.90;;;;;;5085551;28;21146;-82
2023/08/01 10:28:39;;;;;;;12.10;9.67;;;17.80;99.90;;;;;;5082294;28;20554;-82
2023/08/01 10:31:13;;;;;;;33.43;24.70;;;17.70;99.90;;;;;;5085594;28;20529;-82
2023/08/01 10:33:41;;;;;;;26.60;19.90;;;17.70;99.90;;;;;;5085291;28;20942;-82
2023/08/01 10:36:15;;;;;;;36.03;25.20;;;17.70;99.90;;;;;;5082412;28;20541;-81
2023/08/01 10:38:48;;;;;;;6.10;3.03;;;17.70;99.90;;;;;;5083014;28;20454;-81
2023/08/01 10:41:27;;;;;;;6.70;6.10;;;17.70;99.90;;;;;;5079313;28;20534;-81
2023/08/01 10:44:07;;;;;;;6.07;5.57;;;17.70;99.90;;;;;;5083513;28;20454;-80
2023/08/01 10:46:50;;;;;;;19.30;11.50;;;17.80;99.90;;;;;;5081420;28;20457;-82
2023/08/01 10:49:18;;;;;;;5.53;1.93;;;17.80;99.90;;;;;;5079032;28;20516;-81
2023/08/01 10:51:45;;;;;;;7.87;5.57;;;17.70;99.90;;;;;;5078287;28;20503;-82
2023/08/01 10:54:23;;;;;;;2.43;2.00;;;17.60;99.90;;;;;;5075117;28;20872;-82
2023/08/01 10:56:52;;;;;;;8.03;5.83;;;17.50;99.90;;;;;;5078961;28;20484;-81
2023/08/01 10:59:21;;;;;;;9.13;6.77;;;17.60;99.90;;;;;;5080952;28;20503;-83
2023/08/01 11:01:50;;;;;;;2.87;1.97;;;17.50;99.90;;;;;;5078992;28;20469;-82
2023/08/01 11:04:18;;;;;;;2.50;2.17;;;17.50;99.90;;;;;;5082194;28;20472;-81
2023/08/01 11:06:46;;;;;;;3.60;3.20;;;17.60;99.90;;;;;;5083945;28;20522;-82
2023/08/01 11:09:18;;;;;;;4.80;3.63;;;17.50;99.90;;;;;;5082458;28;20516;-82
2023/08/01 11:11:49;;;;;;;4.03;2.37;;;17.50;99.90;;;;;;5084477;28;20522;-81
2023/08/01 11:14:16;;;;;;;5.17;3.77;;;17.60;99.90;;;;;;5082622;28;20472;-82
2023/08/01 11:16:45;;;;;;;1.37;1.27;;;17.50;99.90;;;;;;5074515;28;20586;-83
2023/08/01 11:19:22;;;;;;;2.40;1.80;;;17.50;99.90;;;;;;5083041;28;20504;-82
2023/08/01 11:21:50;;;;;;;3.10;2.10;;;17.50;99.90;;;;;;5077944;28;20477;-83
2023/08/01 11:24:17;;;;;;;2.20;1.33;;;17.50;99.90;;;;;;5075277;28;20488;-81
2023/08/01 11:26:45;;;;;;;3.80;1.73;;;17.50;99.90;;;;;;5081560;28;20479;-80
2023/08/01 11:29:12;;;;;;;2.27;1.70;;;17.40;99.90;;;;;;5082457;28;20980;-82
2023/08/01 11:31:40;;;;;;;4.33;2.53;;;17.50;99.90;;;;;;5084942;28;20454;-80
2023/08/01 11:34:10;;;;;;;2.43;2.00;;;17.60;99.90;;;;;;5079828;28;20466;-83
2023/08/01 11:36:38;;;;;;;1.93;1.73;;;17.60;99.90;;;;;;5081778;28;20448;-80
2023/08/01 11:39:05;;;;;;;2.87;2.67;;;17.70;99.90;;;;;;5083084;28;21156;-80
2023/08/01 11:41:32;;;;;;;1.67;1.57;;;17.80;99.90;;;;;;5081300;28;20995;-80
2023/08/01 11:44:04;;;;;;;1.73;1.60;;;17.90;99.90;;;;;;5079840;28;20462;-82
2023/08/01 11:46:36;;;;;;;1.97;1.50;;;18.10;99.90;;;;;;5075319;28;20467;-80
2023/08/01 11:49:03;;;;;;;1.43;1.20;;;18.20;99.90;;;;;;5081103;28;20493;-81
2023/08/01 11:51:39;;;;;;;1.17;1.07;;;18.20;99.90;;;;;;5079854;28;20959;-80
2023/08/01 11:54:07;;;;;;;1.20;1.10;;;18.30;99.90;;;;;;5077493;28;20447;-80
2023/08/01 11:56:34;;;;;;;2.20;1.37;;;18.30;99.90;;;;;;5072878;28;20480;-80
2023/08/01 11:59:09;;;;;;;2.07;1.47;;;18.40;99.90;;;;;;5075925;28;20460;-79
2023/08/01 12:01:39;;;;;;;2.20;1.90;;;18.40;99.90;;;;;;5077662;28;20492;-80
2023/08/01 12:04:06;;;;;;;1.33;1.07;;;18.30;99.90;;;;;;5076023;28;20448;-83
2023/08/01 12:06:37;;;;;;;1.60;1.10;;;18.20;99.90;;;;;;5070521;28;20548;-82
2023/08/01 12:09:09;;;;;;;3.47;1.20;;;18.00;99.90;;;;;;5083170;28;20489;-81
2023/08/01 12:11:36;;;;;;;1.90;0.77;;;18.00;99.90;;;;;;5084557;28;20517;-80
2023/08/01 12:14:06;;;;;;;1.43;1.20;;;18.00;99.90;;;;;;5081343;28;20568;-82
2023/08/01 12:16:34;;;;;;;1.80;1.33;;;17.90;99.90;;;;;;5081831;28;20579;-80
2023/08/01 12:19:01;;;;;;;5.37;1.43;;;17.90;99.90;;;;;;5082517;28;20532;-81
2023/08/01 12:21:27;;;;;;;1.67;1.40;;;18.00;99.90;;;;;;5085446;28;20510;-84
2023/08/01 12:23:56;;;;;;;2.30;1.10;;;18.10;99.90;;;;;;5085432;28;20508;-81
2023/08/01 12:26:24;;;;;;;2.13;1.47;;;18.10;99.90;;;;;;5081563;28;20471;-81
2023/08/01 12:28:51;;;;;;;1.40;1.30;;;18.20;99.90;;;;;;5087663;28;20905;-81
2023/08/01 12:31:18;;;;;;;0.80;0.80;;;18.10;99.90;;;;;;5081867;28;20493;-81
2023/08/01 12:33:46;;;;;;;2.53;1.30;;;18.00;99.90;;;;;;5084293;28;20530;-81
2023/08/01 12:36:13;;;;;;;2.83;1.47;;;17.90;99.90;;;;;;5084710;28;20496;-81
2023/08/01 12:38:40;;;;;;;2.43;1.20;;;18.00;99.90;;;;;;5084493;28;20457;-81
2023/08/01 12:41:09;;;;;;;2.60;1.13;;;17.90;99.90;;;;;;5084487;28;20863;-81
2023/08/01 12:43:36;;;;;;;1.70;1.30;;;17.70;99.90;;;;;;5080927;28;20504;-83
2023/08/01 12:46:03;;;;;;;1.00;0.80;;;17.80;99.90;;;;;;5085745;28;20482;-82
2023/08/01 12:48:33;;;;;;;1.20;1.00;;;17.80;99.90;;;;;;5083330;28;20501;-77